sensor_id;sensor_type;location;lat;lon;timestamp;pressure;altitude;pressure_sealevel;temperature;humidity
75891;BME280;64571;47.512;19.054;2023-07-29T00:02:28;99972.94;;;22.46;70.72
75891;BME280;64571;47.512;19.054;2023-07-29T00:05:33;99985.47;;;22.45;72.07
75891;BME280;64571;47.512;19.054;2023-07-29T00:08:35;99982.19;;;22.40;72.72
75891;BME280;64571;47.512;19.054;2023-07-29T00:11:38;99988.19;;;22.35;73.09
75891;BME280;64571;47.512;19.054;2023-07-29T00:14:40;99975.16;;;22.27;72.95
75891;BME280;64571;47.512;19.054;2023-07-29T00:17:43;99983.34;;;22.35;72.34
75891;BME280;64571;47.512;19.054;2023-07-29T00:20:46;99976.06;;;22.34;71.84
75891;BME280;64571;47.512;19.054;2023-07-29T00:23:48;99989.00;;;22.35;71.93
75891;BME280;64571;47.512;19.054;2023-07-29T00:26:51;99983.31;;;22.32;71.81
75891;BME280;64571;47.512;19.054;2023-07-29T00:29:55;99984.91;;;22.29;71.07
75891;BME280;64571;47.512;19.054;2023-07-29T00:32:58;99967.06;;;22.25;71.13
75891;BME280;64571;47.512;19.054;2023-07-29T00:36:00;99975.16;;;22.27;71.10
75891;BME280;64571;47.512;19.054;2023-07-29T00:39:05;99983.25;;;22.28;71.20
75891;BME280;64571;47.512;19.054;2023-07-29T00:42:08;99975.91;;;22.20;72.04
75891;BME280;64571;47.512;19.054;2023-07-29T00:45:11;99973.41;;;22.15;73.21
75891;BME280;64571;47.512;19.054;2023-07-29T00:48:14;99986.22;;;22.05;74.79
75891;BME280;64571;47.512;19.054;2023-07-29T00:51:16;99970.78;;;21.99;75.27
75891;BME280;64571;47.512;19.054;2023-07-29T00:54:19;99975.63;;;21.98;75.59
75891;BME280;64571;47.512;19.054;2023-07-29T00:57:23;99962.13;;;21.88;75.34
75891;BME280;64571;47.512;19.054;2023-07-29T01:00:27;99965.72;;;21.82;75.58
75891;BME280;64571;47.512;19.054;2023-07-29T01:03:30;99962.75;;;21.71;76.93
75891;BME280;64571;47.512;19.054;2023-07-29T01:10:13;99972.41;;;21.66;78.21
75891;BME280;64571;47.512;19.054;2023-07-29T01:13:30;99973.56;;;21.65;78.60
75891;BME280;64571;47.512;19.054;2023-07-29T01:16:47;99965.09;;;21.65;78.61
75891;BME280;64571;47.512;19.054;2023-07-29T01:20:15;99974.38;;;21.66;78.59
75891;BME280;64571;47.512;19.054;2023-07-29T01:23:24;99969.94;;;21.65;77.60
75891;BME280;64571;47.512;19.054;2023-07-29T01:26:26;99964.63;;;21.60;77.93
75891;BME280;64571;47.512;19.054;2023-07-29T01:29:31;99954.72;;;21.46;79.28
75891;BME280;64571;47.512;19.054;2023-07-29T01:33:09;99966.72;;;21.36;80.19
75891;BME280;64571;47.512;19.054;2023-07-29T01:36:07;99968.72;;;21.36;80.54
75891;BME280;64571;47.512;19.054;2023-07-29T01:39:14;99972.75;;;21.35;80.58
75891;BME280;64571;47.512;19.054;2023-07-29T01:42:19;99972.72;;;21.31;80.55
75891;BME280;64571;47.512;19.054;2023-07-29T01:45:25;99977.16;;;21.32;80.46
75891;BME280;64571;47.512;19.054;2023-07-29T01:48:28;99968.59;;;21.29;79.11
75891;BME280;64571;47.512;19.054;2023-07-29T01:51:33;99968.84;;;21.20;78.49
75891;BME280;64571;47.512;19.054;2023-07-29T01:54:35;99982.62;;;21.21;79.14
75891;BME280;64571;47.512;19.054;2023-07-29T01:57:38;99976.84;;;21.14;79.28
75891;BME280;64571;47.512;19.054;2023-07-29T02:00:40;99973.91;;;21.07;79.98
75891;BME280;64571;47.512;19.054;2023-07-29T02:03:43;99975.91;;;21.07;80.26
75891;BME280;64571;47.512;19.054;2023-07-29T02:06:45;99972.66;;;21.05;80.73
75891;BME280;64571;47.512;19.054;2023-07-29T02:09:48;99972.72;;;21.08;79.96
75891;BME280;64571;47.512;19.054;2023-07-29T02:12:51;99976.69;;;21.04;79.21
75891;BME280;64571;47.512;19.054;2023-07-29T02:15:53;99979.13;;;21.05;78.44
75891;BME280;64571;47.512;19.054;2023-07-29T02:18:56;99974.94;;;20.95;78.04
75891;BME280;64571;47.512;19.054;2023-07-29T02:21:58;99976.56;;;20.96;77.60
75891;BME280;64571;47.512;19.054;2023-07-29T02:25:01;99974.62;;;21.01;77.36
75891;BME280;64571;47.512;19.054;2023-07-29T02:28:04;99975.50;;;21.05;77.39
75891;BME280;64571;47.512;19.054;2023-07-29T02:31:14;99976.25;;;21.02;77.52
75891;BME280;64571;47.512;19.054;2023-07-29T02:34:18;99983.97;;;21.05;77.28
75891;BME280;64571;47.512;19.054;2023-07-29T02:37:20;99980.16;;;20.93;77.60
75891;BME280;64571;47.512;19.054;2023-07-29T02:40:23;99975.34;;;20.94;77.98
75891;BME280;64571;47.512;19.054;2023-07-29T02:43:29;99977.31;;;20.93;78.32
75891;BME280;64571;47.512;19.054;2023-07-29T02:46:31;99974.88;;;20.92;78.90
75891;BME280;64571;47.512;19.054;2023-07-29T02:49:34;99982.06;;;20.86;79.17
75891;BME280;64571;47.512;19.054;2023-07-29T02:52:36;99982.94;;;20.90;79.35
75891;BME280;64571;47.512;19.054;2023-07-29T02:55:40;99989.47;;;20.94;79.63
75891;BME280;64571;47.512;19.054;2023-07-29T02:58:43;99987.44;;;20.94;79.70
75891;BME280;64571;47.512;19.054;2023-07-29T03:01:47;99977.31;;;20.93;79.43
75891;BME280;64571;47.512;19.054;2023-07-29T03:04:49;99984.72;;;21.02;78.86
75891;BME280;64571;47.512;19.054;2023-07-29T03:07:53;99980.69;;;21.03;78.93
75891;BME280;64571;47.512;19.054;2023-07-29T03:10:56;99988.75;;;21.01;79.10
75891;BME280;64571;47.512;19.054;2023-07-29T03:13:59;99987.22;;;21.07;78.62
75891;BME280;64571;47.512;19.054;2023-07-29T03:17:03;99981.91;;;21.02;78.73
75891;BME280;64571;47.512;19.054;2023-07-29T03:20:09;99976.69;;;21.04;78.53
75891;BME280;64571;47.512;19.054;2023-07-29T03:23:11;99988.03;;;21.07;78.61
75891;BME280;64571;47.512;19.054;2023-07-29T03:26:14;99995.75;;;21.10;78.38
75891;BME280;64571;47.512;19.054;2023-07-29T03:29:17;99991.72;;;21.11;78.26
75891;BME280;64571;47.512;19.054;2023-07-29T03:32:19;99989.72;;;21.12;78.17
75891;BME280;64571;47.512;19.054;2023-07-29T03:35:22;99985.66;;;21.09;78.51
75891;BME280;64571;47.512;19.054;2023-07-29T03:38:25;99992.94;;;21.10;79.70
75891;BME280;64571;47.512;19.054;2023-07-29T03:41:27;99992.13;;;21.10;80.12
75891;BME280;64571;47.512;19.054;2023-07-29T03:44:30;99989.31;;;21.10;80.33
75891;BME280;64571;47.512;19.054;2023-07-29T03:47:33;99996.50;;;21.07;80.87
75891;BME280;64571;47.512;19.054;2023-07-29T03:50:36;99991.69;;;21.08;80.35
75891;BME280;64571;47.512;19.054;2023-07-29T03:53:38;99985.09;;;21.00;79.94
75891;BME280;64571;47.512;19.054;2023-07-29T03:56:41;99989.62;;;21.05;79.30
75891;BME280;64571;47.512;19.054;2023-07-29T03:59:43;99996.03;;;21.02;80.16
75891;BME280;64571;47.512;19.054;2023-07-29T04:02:47;99991.03;;;20.91;79.60
75891;BME280;64571;47.512;19.054;2023-07-29T04:05:49;99999.50;;;20.91;78.91
75891;BME280;64571;47.512;19.054;2023-07-29T04:08:52;99993.78;;;20.88;81.49
75891;BME280;64571;47.512;19.054;2023-07-29T04:11:55;100001.44;;;20.87;81.99
75891;BME280;64571;47.512;19.054;2023-07-29T04:14:57;100003.06;;;20.88;81.93
75891;BME280;64571;47.512;19.054;2023-07-29T04:18:00;100005.63;;;20.97;81.10
75891;BME280;64571;47.512;19.054;2023-07-29T04:21:03;100002.00;;;20.96;81.07
75891;BME280;64571;47.512;19.054;2023-07-29T04:24:05;99999.31;;;21.04;80.69
75891;BME280;64571;47.512;19.054;2023-07-29T04:27:08;100007.06;;;21.10;80.51
75891;BME280;64571;47.512;19.054;2023-07-29T04:30:11;100010.37;;;21.16;80.40
75891;BME280;64571;47.512;19.054;2023-07-29T04:33:13;100002.03;;;21.23;79.79
75891;BME280;64571;47.512;19.054;2023-07-29T04:36:16;99995.56;;;21.22;79.33
75891;BME280;64571;47.512;19.054;2023-07-29T04:39:19;99999.31;;;21.30;78.96
75891;BME280;64571;47.512;19.054;2023-07-29T04:42:21;100013.91;;;21.32;78.75
75891;BME280;64571;47.512;19.054;2023-07-29T04:45:28;99996.38;;;21.23;76.94
75891;BME280;64571;47.512;19.054;2023-07-29T04:48:31;99992.38;;;21.01;75.05
75891;BME280;64571;47.512;19.054;2023-07-29T04:51:33;100007.66;;;20.96;74.29
75891;BME280;64571;47.512;19.054;2023-07-29T04:54:36;100002.44;;;20.98;74.08
75891;BME280;64571;47.512;19.054;2023-07-29T04:57:39;100009.91;;;21.10;75.01
75891;BME280;64571;47.512;19.054;2023-07-29T05:00:41;100000.28;;;21.15;74.93
75891;BME280;64571;47.512;19.054;2023-07-29T05:03:45;100006.94;;;21.26;75.54
75891;BME280;64571;47.512;19.054;2023-07-29T05:06:48;100007.94;;;21.37;75.48
75891;BME280;64571;47.512;19.054;2023-07-29T05:09:51;99995.13;;;21.47;75.05
75891;BME280;64571;47.512;19.054;2023-07-29T05:12:53;100011.94;;;21.63;72.83
75891;BME280;64571;47.512;19.054;2023-07-29T05:15:56;100019.06;;;21.83;72.24
75891;BME280;64571;47.512;19.054;2023-07-29T05:18:59;100011.94;;;21.93;72.41
75891;BME280;64571;47.512;19.054;2023-07-29T05:22:01;100020.97;;;22.02;72.26
75891;BME280;64571;47.512;19.054;2023-07-29T05:25:04;100024.81;;;22.17;71.89
75891;BME280;64571;47.512;19.054;2023-07-29T05:28:07;100024.63;;;22.36;71.38
75891;BME280;64571;47.512;19.054;2023-07-29T05:31:10;100027.97;;;22.45;71.28
75891;BME280;64571;47.512;19.054;2023-07-29T05:34:13;100032.97;;;22.59;70.62
75891;BME280;64571;47.512;19.054;2023-07-29T05:37:17;100020.88;;;22.62;70.18
75891;BME280;64571;47.512;19.054;2023-07-29T05:40:19;100024.22;;;22.75;69.89
75891;BME280;64571;47.512;19.054;2023-07-29T05:43:24;100030.06;;;22.89;69.53
75891;BME280;64571;47.512;19.054;2023-07-29T05:46:27;100041.97;;;23.06;69.21
75891;BME280;64571;47.512;19.054;2023-07-29T05:49:30;100037.06;;;23.03;68.67
75891;BME280;64571;47.512;19.054;2023-07-29T05:52:32;100048.81;;;23.01;68.36
75891;BME280;64571;47.512;19.054;2023-07-29T05:55:35;100044.34;;;23.04;68.16
75891;BME280;64571;47.512;19.054;2023-07-29T05:58:38;100049.78;;;23.19;67.53
75891;BME280;64571;47.512;19.054;2023-07-29T06:01:41;100054.75;;;23.33;66.99
75891;BME280;64571;47.512;19.054;2023-07-29T06:04:44;100055.25;;;23.49;65.87
75891;BME280;64571;47.512;19.054;2023-07-29T06:07:47;100071.84;;;23.44;65.45
75891;BME280;64571;47.512;19.054;2023-07-29T06:10:50;100062.12;;;23.48;64.78
75891;BME280;64571;47.512;19.054;2023-07-29T06:13:53;100072.28;;;23.49;63.53
75891;BME280;64571;47.512;19.054;2023-07-29T06:16:56;100071.66;;;23.70;63.33
75891;BME280;64571;47.512;19.054;2023-07-29T06:19:58;100069.72;;;23.89;62.51
75891;BME280;64571;47.512;19.054;2023-07-29T06:23:02;100075.75;;;23.80;61.81
75891;BME280;64571;47.512;19.054;2023-07-29T06:26:04;100081.37;;;24.39;59.77
75891;BME280;64571;47.512;19.054;2023-07-29T06:29:09;100085.56;;;24.84;57.60
75891;BME280;64571;47.512;19.054;2023-07-29T06:32:11;100082.41;;;25.32;55.89
75891;BME280;64571;47.512;19.054;2023-07-29T06:35:14;100080.34;;;25.86;54.16
75891;BME280;64571;47.512;19.054;2023-07-29T06:38:17;100081.41;;;26.28;53.23
75891;BME280;64571;47.512;19.054;2023-07-29T06:41:24;100078.50;;;26.53;52.39
75891;BME280;64571;47.512;19.054;2023-07-29T06:44:26;100081.09;;;26.92;50.73
75891;BME280;64571;47.512;19.054;2023-07-29T06:47:29;100085.16;;;26.98;51.23
75891;BME280;64571;47.512;19.054;2023-07-29T06:50:31;100072.06;;;27.05;51.57
75891;BME280;64571;47.512;19.054;2023-07-29T06:53:34;100078.56;;;27.05;50.90
75891;BME280;64571;47.512;19.054;2023-07-29T06:56:37;100073.34;;;26.96;51.25
75891;BME280;64571;47.512;19.054;2023-07-29T06:59:40;100070.87;;;26.98;51.71
75891;BME280;64571;47.512;19.054;2023-07-29T07:02:42;100084.41;;;26.87;52.63
75891;BME280;64571;47.512;19.054;2023-07-29T07:05:46;100077.31;;;26.40;53.49
75891;BME280;64571;47.512;19.054;2023-07-29T07:08:48;100077.03;;;26.06;54.70
75891;BME280;64571;47.512;19.054;2023-07-29T07:11:52;100071.56;;;26.58;54.42
75891;BME280;64571;47.512;19.054;2023-07-29T07:14:55;100061.28;;;27.34;52.10
75891;BME280;64571;47.512;19.054;2023-07-29T07:17:57;100067.87;;;27.72;50.72
75891;BME280;64571;47.512;19.054;2023-07-29T07:21:00;100063.84;;;27.62;50.74
75891;BME280;64571;47.512;19.054;2023-07-29T07:24:03;100064.13;;;27.79;50.11
75891;BME280;64571;47.512;19.054;2023-07-29T07:27:05;100061.66;;;27.36;51.54
75891;BME280;64571;47.512;19.054;2023-07-29T07:30:08;100064.22;;;27.64;50.71
75891;BME280;64571;47.512;19.054;2023-07-29T07:33:11;100065.00;;;27.72;50.71
75891;BME280;64571;47.512;19.054;2023-07-29T07:36:14;100065.03;;;27.65;50.45
75891;BME280;64571;47.512;19.054;2023-07-29T07:39:17;100069.88;;;27.75;50.36
75891;BME280;64571;47.512;19.054;2023-07-29T07:42:20;100063.56;;;27.49;51.04
75891;BME280;64571;47.512;19.054;2023-07-29T07:45:23;100061.69;;;27.32;52.40
75891;BME280;64571;47.512;19.054;2023-07-29T07:48:26;100073.34;;;26.96;53.74
75891;BME280;64571;47.512;19.054;2023-07-29T07:51:29;100068.19;;;26.70;54.55
75891;BME280;64571;47.512;19.054;2023-07-29T07:54:32;100063.38;;;26.63;54.48
75891;BME280;64571;47.512;19.054;2023-07-29T07:57:34;100059.19;;;26.79;54.22
75891;BME280;64571;47.512;19.054;2023-07-29T08:00:37;100052.97;;;26.98;53.66
75891;BME280;64571;47.512;19.054;2023-07-29T08:03:40;100050.81;;;27.16;52.89
75891;BME280;64571;47.512;19.054;2023-07-29T08:06:42;100048.19;;;27.36;52.21
75891;BME280;64571;47.512;19.054;2023-07-29T08:09:45;100052.88;;;27.61;51.97
75891;BME280;64571;47.512;19.054;2023-07-29T08:12:47;100049.69;;;27.51;51.72
75891;BME280;64571;47.512;19.054;2023-07-29T08:15:51;100047.09;;;27.64;52.12
75891;BME280;64571;47.512;19.054;2023-07-29T08:18:54;100050.66;;;27.79;51.22
75891;BME280;64571;47.512;19.054;2023-07-29T08:21:57;100038.22;;;27.96;50.96
75891;BME280;64571;47.512;19.054;2023-07-29T08:25:00;100040.00;;;28.17;50.35
75891;BME280;64571;47.512;19.054;2023-07-29T08:28:03;100047.91;;;28.40;49.37
75891;BME280;64571;47.512;19.054;2023-07-29T08:31:05;100046.47;;;28.21;48.19
75891;BME280;64571;47.512;19.054;2023-07-29T08:34:08;100037.22;;;28.44;48.01
75891;BME280;64571;47.512;19.054;2023-07-29T08:37:11;100038.84;;;28.45;48.12
75891;BME280;64571;47.512;19.054;2023-07-29T08:40:13;100036.75;;;28.49;47.84
75891;BME280;64571;47.512;19.054;2023-07-29T08:43:19;100040.66;;;28.63;47.52
75891;BME280;64571;47.512;19.054;2023-07-29T08:46:23;100026.34;;;28.63;47.31
75891;BME280;64571;47.512;19.054;2023-07-29T08:49:26;100036.72;;;28.80;47.07
75891;BME280;64571;47.512;19.054;2023-07-29T08:52:31;100026.72;;;28.38;47.74
75891;BME280;64571;47.512;19.054;2023-07-29T08:55:34;100033.37;;;28.85;46.96
75891;BME280;64571;47.512;19.054;2023-07-29T08:58:39;100026.69;;;28.95;46.26
75891;BME280;64571;47.512;19.054;2023-07-29T09:01:41;100028.88;;;28.84;46.28
75891;BME280;64571;47.512;19.054;2023-07-29T09:04:44;100031.03;;;28.76;46.18
75891;BME280;64571;47.512;19.054;2023-07-29T09:07:48;100024.44;;;28.52;46.19
75891;BME280;64571;47.512;19.054;2023-07-29T09:10:56;100027.09;;;28.67;44.44
75891;BME280;64571;47.512;19.054;2023-07-29T09:13:59;100026.47;;;29.10;44.68
75891;BME280;64571;47.512;19.054;2023-07-29T09:17:02;100023.87;;;29.19;43.17
75891;BME280;64571;47.512;19.054;2023-07-29T09:20:05;100021.50;;;28.60;43.18
75891;BME280;64571;47.512;19.054;2023-07-29T09:23:09;100014.53;;;28.88;41.32
75891;BME280;64571;47.512;19.054;2023-07-29T09:26:13;100009.06;;;29.24;42.14
75891;BME280;64571;47.512;19.054;2023-07-29T09:29:16;99999.56;;;29.74;40.45
75891;BME280;64571;47.512;19.054;2023-07-29T09:32:25;100009.66;;;29.82;39.96
75891;BME280;64571;47.512;19.054;2023-07-29T09:35:29;100005.44;;;29.43;41.24
75891;BME280;64571;47.512;19.054;2023-07-29T09:38:32;100004.44;;;29.77;39.50
75891;BME280;64571;47.512;19.054;2023-07-29T09:41:35;100000.53;;;29.87;38.98
75891;BME280;64571;47.512;19.054;2023-07-29T09:44:37;100000.47;;;29.24;39.63
75891;BME280;64571;47.512;19.054;2023-07-29T09:47:40;99998.34;;;29.28;39.96
75891;BME280;64571;47.512;19.054;2023-07-29T09:50:47;99992.00;;;29.64;39.28
75891;BME280;64571;47.512;19.054;2023-07-29T09:53:51;99996.41;;;29.88;39.51
75891;BME280;64571;47.512;19.054;2023-07-29T09:56:56;99991.09;;;30.07;39.10
75891;BME280;64571;47.512;19.054;2023-07-29T09:59:59;99990.03;;;30.20;38.01
75891;BME280;64571;47.512;19.054;2023-07-29T10:03:06;99985.06;;;30.41;37.45
75891;BME280;64571;47.512;19.054;2023-07-29T10:06:09;99990.94;;;30.54;37.03
75891;BME280;64571;47.512;19.054;2023-07-29T10:09:13;99974.72;;;30.07;37.51
75891;BME280;64571;47.512;19.054;2023-07-29T10:12:16;99974.56;;;29.74;38.45
75891;BME280;64571;47.512;19.054;2023-07-29T10:15:20;99964.09;;;29.68;38.69
75891;BME280;64571;47.512;19.054;2023-07-29T10:18:24;99966.34;;;29.96;38.38
75891;BME280;64571;47.512;19.054;2023-07-29T10:21:27;99967.06;;;30.40;38.01
75891;BME280;64571;47.512;19.054;2023-07-29T10:24:32;99972.25;;;30.45;37.99
75891;BME280;64571;47.512;19.054;2023-07-29T10:27:47;99967.53;;;30.55;36.89
75891;BME280;64571;47.512;19.054;2023-07-29T10:30:51;99959.03;;;30.68;36.69
75891;BME280;64571;47.512;19.054;2023-07-29T10:33:54;99956.56;;;30.86;36.39
75891;BME280;64571;47.512;19.054;2023-07-29T10:36:57;99968.47;;;31.17;35.53
75891;BME280;64571;47.512;19.054;2023-07-29T10:40:06;99970.00;;;31.22;36.09
75891;BME280;64571;47.512;19.054;2023-07-29T10:43:10;99978.09;;;31.43;35.56
75891;BME280;64571;47.512;19.054;2023-07-29T10:46:23;99971.63;;;30.74;36.40
75891;BME280;64571;47.512;19.054;2023-07-29T10:49:26;99964.25;;;31.38;35.63
75891;BME280;64571;47.512;19.054;2023-07-29T10:55:39;99965.88;;;31.68;35.17
75891;BME280;64571;47.512;19.054;2023-07-29T10:58:43;99959.41;;;31.19;36.48
75891;BME280;64571;47.512;19.054;2023-07-29T11:01:56;99951.59;;;31.36;36.39
75891;BME280;64571;47.512;19.054;2023-07-29T11:05:00;99961.22;;;30.96;36.71
75891;BME280;64571;47.512;19.054;2023-07-29T11:11:20;99964.00;;;31.16;36.20
75891;BME280;64571;47.512;19.054;2023-07-29T11:14:24;99959.78;;;31.21;36.37
75891;BME280;64571;47.512;19.054;2023-07-29T11:17:26;99960.75;;;31.76;35.63
75891;BME280;64571;47.512;19.054;2023-07-29T11:20:31;99967.19;;;31.80;35.46
75891;BME280;64571;47.512;19.054;2023-07-29T11:23:35;99964.78;;;31.49;35.77
75891;BME280;64571;47.512;19.054;2023-07-29T11:26:46;99967.75;;;31.75;35.27
75891;BME280;64571;47.512;19.054;2023-07-29T11:29:48;99960.59;;;31.67;35.46
75891;BME280;64571;47.512;19.054;2023-07-29T11:32:53;99956.53;;;31.19;36.32
75891;BME280;64571;47.512;19.054;2023-07-29T11:35:56;99954.22;;;30.81;37.38
75891;BME280;64571;47.512;19.054;2023-07-29T11:38:59;99945.25;;;30.07;38.99
75891;BME280;64571;47.512;19.054;2023-07-29T11:42:02;99952.16;;;30.09;39.30
75891;BME280;64571;47.512;19.054;2023-07-29T11:45:05;99954.13;;;30.32;39.04
75891;BME280;64571;47.512;19.054;2023-07-29T11:48:11;99958.06;;;30.38;38.61
75891;BME280;64571;47.512;19.054;2023-07-29T11:51:14;99948.09;;;30.63;37.77
75891;BME280;64571;47.512;19.054;2023-07-29T11:54:17;99945.50;;;30.68;37.70
75891;BME280;64571;47.512;19.054;2023-07-29T11:57:24;99937.31;;;30.50;38.14
75891;BME280;64571;47.512;19.054;2023-07-29T12:00:26;99938.69;;;30.79;37.72
75891;BME280;64571;47.512;19.054;2023-07-29T12:03:29;99936.84;;;31.50;35.94
75891;BME280;64571;47.512;19.054;2023-07-29T12:06:32;99921.19;;;31.80;34.85
75891;BME280;64571;47.512;19.054;2023-07-29T12:09:36;99925.59;;;31.56;34.78
75891;BME280;64571;47.512;19.054;2023-07-29T12:12:46;99925.09;;;31.44;35.69
75891;BME280;64571;47.512;19.054;2023-07-29T12:15:49;99924.63;;;31.46;34.64
75891;BME280;64571;47.512;19.054;2023-07-29T12:18:55;99926.00;;;31.25;35.23
75891;BME280;64571;47.512;19.054;2023-07-29T12:21:58;99918.09;;;31.45;34.72
75891;BME280;64571;47.512;19.054;2023-07-29T12:25:00;99914.84;;;32.27;34.08
75891;BME280;64571;47.512;19.054;2023-07-29T12:28:06;99909.37;;;32.45;33.53
75891;BME280;64571;47.512;19.054;2023-07-29T12:31:09;99913.91;;;32.05;33.32
75891;BME280;64571;47.512;19.054;2023-07-29T12:34:21;99919.06;;;32.51;33.25
75891;BME280;64571;47.512;19.054;2023-07-29T12:37:31;99916.22;;;32.22;32.97
75891;BME280;64571;47.512;19.054;2023-07-29T12:40:38;99902.44;;;31.75;32.89
75891;BME280;64571;47.512;19.054;2023-07-29T12:43:42;99908.91;;;31.50;33.13
75891;BME280;64571;47.512;19.054;2023-07-29T12:46:44;99894.41;;;31.41;33.79
75891;BME280;64571;47.512;19.054;2023-07-29T12:49:47;99903.66;;;31.33;34.46
75891;BME280;64571;47.512;19.054;2023-07-29T12:52:50;99910.31;;;31.59;33.43
75891;BME280;64571;47.512;19.054;2023-07-29T12:55:52;99902.53;;;31.72;33.17
75891;BME280;64571;47.512;19.054;2023-07-29T12:58:55;99902.63;;;31.85;32.17
75891;BME280;64571;47.512;19.054;2023-07-29T13:01:57;99899.75;;;31.97;32.02
75891;BME280;64571;47.512;19.054;2023-07-29T13:05:00;99888.53;;;32.54;30.61
75891;BME280;64571;47.512;19.054;2023-07-29T13:08:02;99891.38;;;32.16;31.28
75891;BME280;64571;47.512;19.054;2023-07-29T13:11:05;99895.63;;;32.37;31.23
75891;BME280;64571;47.512;19.054;2023-07-29T13:14:08;99901.31;;;32.66;31.10
75891;BME280;64571;47.512;19.054;2023-07-29T13:17:10;99893.69;;;32.72;31.46
75891;BME280;64571;47.512;19.054;2023-07-29T13:20:13;99890.00;;;32.59;32.09
75891;BME280;64571;47.512;19.054;2023-07-29T13:23:16;99882.50;;;32.10;32.83
75891;BME280;64571;47.512;19.054;2023-07-29T13:26:18;99883.12;;;32.43;32.33
75891;BME280;64571;47.512;19.054;2023-07-29T13:29:21;99874.00;;;32.32;31.99
75891;BME280;64571;47.512;19.054;2023-07-29T13:32:24;99884.50;;;32.51;31.97
75891;BME280;64571;47.512;19.054;2023-07-29T13:35:27;99882.44;;;32.39;32.54
75891;BME280;64571;47.512;19.054;2023-07-29T13:38:30;99876.00;;;32.48;32.71
75891;BME280;64571;47.512;19.054;2023-07-29T13:41:33;99871.97;;;31.36;34.52
75891;BME280;64571;47.512;19.054;2023-07-29T13:44:35;99872.03;;;32.04;33.66
75891;BME280;64571;47.512;19.054;2023-07-29T13:47:38;99864.47;;;32.61;32.85
75891;BME280;64571;47.512;19.054;2023-07-29T13:50:41;99848.41;;;32.72;32.50
75891;BME280;64571;47.512;19.054;2023-07-29T13:53:45;99848.00;;;33.09;32.07
75891;BME280;64571;47.512;19.054;2023-07-29T13:56:47;99844.94;;;33.25;31.53
75891;BME280;64571;47.512;19.054;2023-07-29T13:59:50;99841.53;;;32.70;32.31
75891;BME280;64571;47.512;19.054;2023-07-29T14:02:53;99849.22;;;32.73;32.06
75891;BME280;64571;47.512;19.054;2023-07-29T14:05:55;99841.78;;;32.63;32.21
75891;BME280;64571;47.512;19.054;2023-07-29T14:08:58;99845.66;;;32.69;32.01
75891;BME280;64571;47.512;19.054;2023-07-29T14:12:01;99833.81;;;32.67;31.94
75891;BME280;64571;47.512;19.054;2023-07-29T14:15:04;99830.38;;;32.46;31.93
75891;BME280;64571;47.512;19.054;2023-07-29T14:18:08;99822.91;;;32.36;31.75
75891;BME280;64571;47.512;19.054;2023-07-29T14:21:11;99823.09;;;31.78;32.67
75891;BME280;64571;47.512;19.054;2023-07-29T14:24:13;99813.50;;;31.97;32.27
75891;BME280;64571;47.512;19.054;2023-07-29T14:27:17;99809.13;;;31.93;32.39
75891;BME280;64571;47.512;19.054;2023-07-29T14:30:20;99806.38;;;32.02;32.28
75891;BME280;64571;47.512;19.054;2023-07-29T14:33:22;99806.84;;;31.46;32.58
75891;BME280;64571;47.512;19.054;2023-07-29T14:36:25;99821.69;;;31.57;32.87
75891;BME280;64571;47.512;19.054;2023-07-29T14:39:30;99814.34;;;31.27;33.72
75891;BME280;64571;47.512;19.054;2023-07-29T14:42:33;99814.81;;;31.25;33.93
75891;BME280;64571;47.512;19.054;2023-07-29T14:45:37;99807.41;;;31.12;34.38
75891;BME280;64571;47.512;19.054;2023-07-29T14:48:40;99810.53;;;31.17;34.70
75891;BME280;64571;47.512;19.054;2023-07-29T14:51:42;99814.25;;;31.01;35.01
75891;BME280;64571;47.512;19.054;2023-07-29T14:54:45;99800.09;;;30.94;35.34
75891;BME280;64571;47.512;19.054;2023-07-29T14:57:47;99811.59;;;30.94;35.26
75891;BME280;64571;47.512;19.054;2023-07-29T15:00:51;99807.53;;;30.92;35.32
75891;BME280;64571;47.512;19.054;2023-07-29T15:03:53;99808.09;;;30.87;35.56
75891;BME280;64571;47.512;19.054;2023-07-29T15:06:56;99809.09;;;30.80;35.89
75891;BME280;64571;47.512;19.054;2023-07-29T15:10:00;99802.91;;;30.82;36.14
75891;BME280;64571;47.512;19.054;2023-07-29T15:13:03;99796.91;;;30.76;36.13
75891;BME280;64571;47.512;19.054;2023-07-29T15:16:05;99803.41;;;30.93;36.10
75891;BME280;64571;47.512;19.054;2023-07-29T15:19:08;99792.12;;;30.86;36.46
75891;BME280;64571;47.512;19.054;2023-07-29T15:22:10;99806.09;;;31.00;36.41
75891;BME280;64571;47.512;19.054;2023-07-29T15:25:15;99801.75;;;31.08;36.16
75891;BME280;64571;47.512;19.054;2023-07-29T15:28:18;99805.91;;;31.36;35.90
75891;BME280;64571;47.512;19.054;2023-07-29T15:31:21;99803.06;;;31.20;36.15
75891;BME280;64571;47.512;19.054;2023-07-29T15:34:23;99790.06;;;31.15;36.12
75891;BME280;64571;47.512;19.054;2023-07-29T15:37:27;99809.66;;;31.33;36.18
75891;BME280;64571;47.512;19.054;2023-07-29T15:40:30;99801.91;;;31.17;36.14
75891;BME280;64571;47.512;19.054;2023-07-29T15:43:33;99812.28;;;30.98;36.00
75891;BME280;64571;47.512;19.054;2023-07-29T15:46:35;99821.44;;;30.93;35.86
75891;BME280;64571;47.512;19.054;2023-07-29T15:49:39;99809.09;;;30.80;36.12
75891;BME280;64571;47.512;19.054;2023-07-29T15:52:41;99799.88;;;30.72;36.46
75891;BME280;64571;47.512;19.054;2023-07-29T15:55:45;99807.03;;;30.64;36.87
75891;BME280;64571;47.512;19.054;2023-07-29T15:58:47;99812.50;;;30.59;37.11
75891;BME280;64571;47.512;19.054;2023-07-29T16:01:50;99811.53;;;30.49;37.40
75891;BME280;64571;47.512;19.054;2023-07-29T16:04:53;99815.56;;;30.51;37.61
75891;BME280;64571;47.512;19.054;2023-07-29T16:07:55;99820.56;;;30.47;37.93